Weather at Sindal Airport

Public forecast

Using degrees Celsius for public forecast. Weather courtesy of forecast.io.

Current aviation weather report (METAR) for Sindal Airport

Report is more than 6 hours old.

Retrieved 2020/11/25 13:50 UTC (17 hours ago):

EKSN 251350Z 21012KT 7000 FEW009 BKN014 09/07 Q1011

Closest aviation forecast (TAF) to Sindal Airport

Closest forecast is Aalborg Airport, 27.6 nm (51.1 km) SSW. Retrieved 2020/11/26 06:30 UTC (9 minutes ago):

TAF EKYT 260521Z 2606/2706 29008KT 9999 FEW020 TEMPO 2700/2706 1200 BCFG BR